Time;durP1;ratioP1;P1;durP2;ratioP2;P2;SDS_P1;SDS_P2;PMS_P1;PMS_P2;Temp;Humidity;BMP_temperature;BMP_pressure;BME280_temperature;BME280_humidity;BME280_pressure;Samples;Min_cycle;Max_cycle;Signal;HPM_P1;HPM_P2
2021/11/04 00:01:28;;;;;;;35.40;20.27;;;;;;;;;;5013689;28;20118;-81
2021/11/04 00:03:54;;;;;;;35.95;19.05;;;;;;;;;;5004869;28;20041;-88
2021/11/04 00:06:19;;;;;;;32.28;18.80;;;;;;;;;;5010177;28;20026;-81
2021/11/04 00:08:44;;;;;;;32.75;19.20;;;;;;;;;;5010522;28;20040;-90
2021/11/04 00:11:10;;;;;;;29.92;19.02;;;;;;;;;;5008960;28;20076;-81
2021/11/04 00:13:35;;;;;;;32.45;19.00;;;;;;;;;;5009489;28;20046;-83
2021/11/04 00:16:00;;;;;;;32.15;18.88;;;;;;;;;;5007940;28;20075;-87
2021/11/04 00:18:26;;;;;;;29.75;18.65;;;;;;;;;;5016396;28;20018;-82
2021/11/04 00:20:52;;;;;;;30.55;18.52;;;;;;;;;;5011263;28;20038;-82
2021/11/04 00:23:17;;;;;;;30.35;18.75;;;;;;;;;;5016495;28;20026;-82
2021/11/04 00:25:43;;;;;;;31.45;19.02;;;;;;;;;;5011900;28;20028;-87
2021/11/04 00:28:08;;;;;;;31.75;19.50;;;;;;;;;;4999632;28;20072;-87
2021/11/04 00:30:33;;;;;;;31.55;19.00;;;;;;;;;;5004809;28;20041;-80
2021/11/04 00:32:59;;;;;;;30.48;17.85;;;;;;;;;;5016906;28;20026;-88
2021/11/04 00:35:25;;;;;;;31.67;18.55;;;;;;;;;;5006857;28;20076;-82
2021/11/04 00:37:50;;;;;;;30.35;18.70;;;;;;;;;;5007721;28;20030;-82
2021/11/04 00:40:19;;;;;;;29.27;18.40;;;;;;;;;;5009637;28;20034;-81
2021/11/04 00:42:45;;;;;;;31.50;19.35;;;;;;;;;;5012093;28;20057;-81
2021/11/04 00:45:10;;;;;;;34.65;19.17;;;;;;;;;;5005766;28;20524;-82
2021/11/04 00:47:36;;;;;;;36.50;18.63;;;;;;;;;;5005787;28;20169;-89
2021/11/04 00:50:02;;;;;;;33.28;18.35;;;;;;;;;;5004793;28;20148;-81
2021/11/04 00:52:28;;;;;;;33.65;18.65;;;;;;;;;;5011234;28;20037;-81
2021/11/04 00:54:53;;;;;;;33.55;18.48;;;;;;;;;;5010450;28;20689;-82
2021/11/04 00:57:18;;;;;;;30.92;17.70;;;;;;;;;;5001961;28;20396;-88
2021/11/04 00:59:44;;;;;;;27.83;17.55;;;;;;;;;;5009338;28;20513;-86
2021/11/04 01:02:09;;;;;;;28.60;17.45;;;;;;;;;;5008249;28;20561;-83
2021/11/04 01:04:35;;;;;;;29.00;16.83;;;;;;;;;;5006373;28;20034;-80
2021/11/04 01:07:00;;;;;;;28.20;16.85;;;;;;;;;;5009984;28;20065;-82
2021/11/04 01:09:25;;;;;;;30.23;16.77;;;;;;;;;;5010251;28;20026;-90
2021/11/04 01:11:51;;;;;;;30.75;16.00;;;;;;;;;;5006003;28;20022;-89
2021/11/04 01:14:17;;;;;;;25.02;15.93;;;;;;;;;;5003018;28;20452;-82
2021/11/04 01:16:42;;;;;;;21.50;14.73;;;;;;;;;;5011572;28;20080;-81
2021/11/04 01:19:08;;;;;;;23.73;15.75;;;;;;;;;;5013608;28;20034;-82
2021/11/04 01:21:34;;;;;;;26.50;16.35;;;;;;;;;;5008003;28;20497;-88
2021/11/04 01:23:59;;;;;;;25.27;15.82;;;;;;;;;;5003703;28;20117;-81
2021/11/04 01:26:25;;;;;;;23.33;14.95;;;;;;;;;;5026805;28;20029;-82
2021/11/04 01:28:50;;;;;;;23.58;15.23;;;;;;;;;;5006221;28;20018;-83
2021/11/04 01:31:15;;;;;;;23.10;15.70;;;;;;;;;;5011036;28;20022;-90
2021/11/04 01:33:41;;;;;;;22.38;15.18;;;;;;;;;;5011079;28;20501;-91
2021/11/04 01:36:06;;;;;;;22.05;14.80;;;;;;;;;;5009709;28;20460;-83
2021/11/04 01:38:32;;;;;;;23.60;15.57;;;;;;;;;;5021694;28;20029;-83
2021/11/04 01:40:57;;;;;;;23.10;14.55;;;;;;;;;;5024846;28;20025;-86
2021/11/04 01:43:23;;;;;;;22.05;15.00;;;;;;;;;;5010641;28;20489;-87
2021/11/04 01:45:50;;;;;;;20.77;14.43;;;;;;;;;;5001277;28;20038;-90
2021/11/04 01:48:16;;;;;;;22.48;14.55;;;;;;;;;;5012212;28;20041;-83
2021/11/04 01:50:41;;;;;;;21.77;14.48;;;;;;;;;;5009404;28;20489;-90
2021/11/04 01:53:06;;;;;;;20.73;14.23;;;;;;;;;;5013797;28;20093;-82
2021/11/04 01:55:32;;;;;;;20.80;14.10;;;;;;;;;;5011310;28;20608;-83
2021/11/04 01:57:58;;;;;;;22.98;14.82;;;;;;;;;;5011372;28;20753;-86
2021/11/04 02:00:29;;;;;;;20.92;13.75;;;;;;;;;;5010370;28;20025;-86
2021/11/04 02:03:14;;;;;;;21.80;14.30;;;;;;;;;;5003593;28;20026;-81
2021/11/04 02:05:44;;;;;;;21.27;13.93;;;;;;;;;;5006556;28;20034;-82
2021/11/04 02:08:38;;;;;;;21.38;14.20;;;;;;;;;;5009892;28;20030;-87
2021/11/04 02:11:15;;;;;;;22.42;14.85;;;;;;;;;;5016819;28;20021;-81
2021/11/04 02:13:48;;;;;;;20.60;14.50;;;;;;;;;;5025597;28;20050;-81
2021/11/04 02:16:16;;;;;;;20.83;13.95;;;;;;;;;;5016029;28;20029;-81
2021/11/04 02:18:42;;;;;;;23.23;14.90;;;;;;;;;;5016562;28;20434;-89
2021/11/04 02:21:21;;;;;;;22.40;15.35;;;;;;;;;;5016353;28;20026;-86
2021/11/04 02:24:14;;;;;;;23.00;14.57;;;;;;;;;;5008138;28;20430;-87
2021/11/04 02:26:40;;;;;;;22.23;14.93;;;;;;;;;;5013884;28;20033;-81
2021/11/04 02:29:07;;;;;;;21.70;14.18;;;;;;;;;;5011524;28;20035;-81
2021/11/04 02:31:34;;;;;;;21.30;14.57;;;;;;;;;;5014986;28;20026;-87
2021/11/04 02:34:00;;;;;;;24.15;15.75;;;;;;;;;;5016516;28;20045;-86
2021/11/04 02:36:26;;;;;;;21.40;14.15;;;;;;;;;;5008198;28;20026;-86
2021/11/04 02:38:52;;;;;;;21.95;14.55;;;;;;;;;;5009830;28;20030;-86
2021/11/04 02:41:18;;;;;;;22.02;15.25;;;;;;;;;;5010722;28;20026;-90
2021/11/04 02:43:44;;;;;;;20.75;14.63;;;;;;;;;;5010775;28;20045;-81
2021/11/04 02:46:11;;;;;;;21.38;14.25;;;;;;;;;;5011643;28;20033;-89
2021/11/04 02:48:39;;;;;;;24.35;15.27;;;;;;;;;;5005703;28;20026;-83
2021/11/04 02:51:04;;;;;;;22.02;14.10;;;;;;;;;;5005968;28;20527;-83
2021/11/04 02:53:30;;;;;;;21.40;14.07;;;;;;;;;;5012253;28;20021;-86
2021/11/04 02:55:56;;;;;;;22.63;14.73;;;;;;;;;;5018120;28;20025;-84
2021/11/04 02:58:23;;;;;;;21.90;14.90;;;;;;;;;;5001031;28;20050;-81
2021/11/04 03:00:53;;;;;;;21.80;14.60;;;;;;;;;;5011067;28;20049;-83
2021/11/04 03:03:18;;;;;;;22.20;13.98;;;;;;;;;;5008947;28;20109;-87
2021/11/04 03:05:44;;;;;;;22.55;14.23;;;;;;;;;;5018609;28;20053;-88
2021/11/04 03:08:10;;;;;;;21.80;14.85;;;;;;;;;;5013969;28;20021;-81
2021/11/04 03:10:36;;;;;;;22.17;14.27;;;;;;;;;;5017379;28;20032;-89
2021/11/04 03:13:02;;;;;;;22.58;15.13;;;;;;;;;;5018314;28;20049;-87
2021/11/04 03:15:33;;;;;;;20.65;13.82;;;;;;;;;;5016773;28;20091;-83
2021/11/04 03:18:00;;;;;;;22.05;14.52;;;;;;;;;;5006551;28;20482;-86
2021/11/04 03:20:26;;;;;;;21.33;13.65;;;;;;;;;;5011149;28;20035;-89
2021/11/04 03:22:52;;;;;;;23.13;14.98;;;;;;;;;;5013465;28;20033;-87
2021/11/04 03:25:19;;;;;;;25.20;15.02;;;;;;;;;;5015603;28;20116;-80
2021/11/04 03:27:47;;;;;;;23.63;14.95;;;;;;;;;;5010657;28;20125;-85
2021/11/04 03:30:16;;;;;;;22.23;14.40;;;;;;;;;;5013352;28;20033;-82
2021/11/04 03:32:43;;;;;;;20.48;14.20;;;;;;;;;;5012122;28;20030;-81
2021/11/04 03:35:10;;;;;;;23.85;14.77;;;;;;;;;;5011765;28;20037;-82
2021/11/04 03:37:38;;;;;;;21.95;14.55;;;;;;;;;;5012951;28;20032;-81
2021/11/04 03:40:05;;;;;;;20.55;13.55;;;;;;;;;;5020548;28;20094;-83
2021/11/04 03:42:31;;;;;;;22.83;14.43;;;;;;;;;;5013474;28;20395;-81
2021/11/04 03:44:59;;;;;;;22.65;14.52;;;;;;;;;;5008471;28;20034;-86
2021/11/04 03:47:28;;;;;;;22.80;14.02;;;;;;;;;;5000989;28;20029;-87
2021/11/04 03:49:54;;;;;;;22.42;14.35;;;;;;;;;;5008573;28;20486;-82
2021/11/04 03:52:19;;;;;;;22.13;14.80;;;;;;;;;;5003645;28;20034;-89
2021/11/04 03:54:45;;;;;;;22.27;14.75;;;;;;;;;;5009436;28;20117;-87
2021/11/04 03:57:11;;;;;;;20.40;13.65;;;;;;;;;;5015830;28;20044;-81
2021/11/04 03:59:37;;;;;;;21.88;14.32;;;;;;;;;;5007393;28;20030;-87
2021/11/04 04:02:02;;;;;;;21.27;13.65;;;;;;;;;;5013883;28;20033;-81
2021/11/04 04:04:28;;;;;;;22.25;13.35;;;;;;;;;;5009573;28;20026;-80
2021/11/04 04:06:54;;;;;;;19.27;13.05;;;;;;;;;;5012456;28;20029;-87
2021/11/04 04:09:22;;;;;;;20.30;13.65;;;;;;;;;;5002439;28;20490;-82
2021/11/04 04:11:48;;;;;;;20.02;12.73;;;;;;;;;;5018400;28;20026;-90
2021/11/04 04:14:13;;;;;;;19.70;13.20;;;;;;;;;;5005567;28;20038;-87
2021/11/04 04:16:38;;;;;;;19.80;13.10;;;;;;;;;;5009121;28;20030;-87
2021/11/04 04:19:04;;;;;;;18.45;12.82;;;;;;;;;;5014812;28;20029;-89
2021/11/04 04:21:29;;;;;;;19.25;12.95;;;;;;;;;;5011005;28;20065;-82
2021/11/04 04:23:55;;;;;;;18.17;12.50;;;;;;;;;;5017095;28;20030;-86
2021/11/04 04:26:20;;;;;;;17.85;12.70;;;;;;;;;;5009314;28;20481;-82
2021/11/04 04:28:45;;;;;;;18.95;12.45;;;;;;;;;;5015690;28;20083;-82
2021/11/04 04:31:11;;;;;;;17.23;12.48;;;;;;;;;;5005832;28;20030;-82
2021/11/04 04:33:36;;;;;;;19.48;12.52;;;;;;;;;;5010691;28;20041;-88
2021/11/04 04:36:02;;;;;;;18.30;12.80;;;;;;;;;;5011694;28;20026;-80
2021/11/04 04:38:27;;;;;;;20.75;13.48;;;;;;;;;;5002476;28;20394;-82
2021/11/04 04:40:52;;;;;;;19.77;13.77;;;;;;;;;;5006828;28;20040;-81
2021/11/04 04:43:18;;;;;;;18.02;12.70;;;;;;;;;;5009405;28;20030;-82
2021/11/04 04:45:43;;;;;;;18.75;13.27;;;;;;;;;;5004622;28;20029;-88
2021/11/04 04:48:10;;;;;;;18.63;13.05;;;;;;;;;;5006482;28;20084;-81
2021/11/04 04:50:37;;;;;;;19.80;12.80;;;;;;;;;;5011313;28;20064;-90
2021/11/04 04:53:02;;;;;;;20.23;13.05;;;;;;;;;;5016662;28;20392;-86
2021/11/04 04:55:28;;;;;;;19.35;13.07;;;;;;;;;;5011892;28;20033;-88
2021/11/04 04:57:53;;;;;;;20.17;13.40;;;;;;;;;;5009423;28;20037;-82
2021/11/04 05:00:18;;;;;;;18.48;12.57;;;;;;;;;;5012405;28;20038;-82
2021/11/04 05:02:44;;;;;;;19.50;12.38;;;;;;;;;;5015546;28;20032;-85
2021/11/04 05:05:11;;;;;;;18.10;12.30;;;;;;;;;;5014583;28;20022;-80
2021/11/04 05:07:37;;;;;;;19.17;13.50;;;;;;;;;;5014720;28;21339;-87
2021/11/04 05:10:04;;;;;;;19.35;13.38;;;;;;;;;;5003917;28;20030;-81
2021/11/04 05:12:30;;;;;;;19.40;12.80;;;;;;;;;;5009787;28;20105;-81
2021/11/04 05:14:56;;;;;;;19.92;13.43;;;;;;;;;;5010669;28;20038;-80
2021/11/04 05:17:21;;;;;;;18.85;12.77;;;;;;;;;;5010878;28;20045;-82
2021/11/04 05:19:46;;;;;;;19.48;13.63;;;;;;;;;;5003257;28;20081;-83
2021/11/04 05:22:12;;;;;;;19.98;13.75;;;;;;;;;;5000480;28;20026;-89
2021/11/04 05:24:37;;;;;;;17.33;12.88;;;;;;;;;;5014496;28;20026;-82
2021/11/04 05:27:04;;;;;;;18.42;13.38;;;;;;;;;;5011566;28;20112;-82
2021/11/04 05:29:30;;;;;;;18.63;13.25;;;;;;;;;;5021074;28;20019;-83
2021/11/04 05:31:57;;;;;;;19.23;12.82;;;;;;;;;;5015024;28;20030;-89
2021/11/04 05:34:23;;;;;;;18.85;13.23;;;;;;;;;;5011859;28;20026;-80
2021/11/04 05:36:48;;;;;;;18.67;13.65;;;;;;;;;;5005914;28;20029;-80
2021/11/04 05:39:13;;;;;;;20.65;13.90;;;;;;;;;;5017704;28;20033;-82
2021/11/04 05:41:39;;;;;;;20.48;13.80;;;;;;;;;;5009329;28;20068;-89
2021/11/04 05:44:04;;;;;;;20.00;14.02;;;;;;;;;;5012546;28;20026;-89
2021/11/04 05:46:30;;;;;;;22.42;14.73;;;;;;;;;;5008637;28;20030;-88
2021/11/04 05:48:55;;;;;;;22.30;14.63;;;;;;;;;;5015807;28;20048;-81
2021/11/04 05:51:20;;;;;;;19.75;14.02;;;;;;;;;;5009344;28;20032;-82
2021/11/04 05:53:46;;;;;;;21.30;14.00;;;;;;;;;;5010401;28;20026;-87
2021/11/04 05:56:11;;;;;;;23.00;13.80;;;;;;;;;;5003057;28;20036;-88
2021/11/04 05:58:36;;;;;;;24.58;15.32;;;;;;;;;;5006748;28;20033;-82
2021/11/04 06:01:02;;;;;;;22.88;14.80;;;;;;;;;;5008444;28;20019;-81
2021/11/04 06:03:28;;;;;;;26.33;15.88;;;;;;;;;;5004601;28;20117;-81
2021/11/04 06:05:53;;;;;;;23.80;15.27;;;;;;;;;;5005480;28;20505;-81
2021/11/04 06:08:18;;;;;;;22.73;14.52;;;;;;;;;;5006066;28;20101;-89
2021/11/04 06:10:44;;;;;;;24.27;14.85;;;;;;;;;;5009932;28;20021;-82
2021/11/04 06:13:10;;;;;;;21.88;14.40;;;;;;;;;;5003458;28;20172;-81
2021/11/04 06:15:37;;;;;;;21.08;14.15;;;;;;;;;;5004616;28;20413;-81
2021/11/04 06:18:02;;;;;;;20.20;15.18;;;;;;;;;;5011512;28;20118;-89
2021/11/04 06:20:27;;;;;;;25.83;15.00;;;;;;;;;;5005012;28;20050;-82
2021/11/04 06:22:53;;;;;;;20.05;14.73;;;;;;;;;;5015274;28;20037;-82
2021/11/04 06:25:18;;;;;;;20.50;14.70;;;;;;;;;;5013778;28;20087;-87
2021/11/04 06:27:45;;;;;;;21.27;15.10;;;;;;;;;;5018053;28;20058;-89
2021/11/04 06:30:12;;;;;;;23.35;15.35;;;;;;;;;;5012975;28;20021;-89
2021/11/04 06:32:39;;;;;;;21.13;14.95;;;;;;;;;;5018372;28;20119;-87
2021/11/04 06:35:07;;;;;;;28.17;15.02;;;;;;;;;;5017667;28;20036;-82
2021/11/04 06:37:33;;;;;;;21.40;14.20;;;;;;;;;;5018322;28;20026;-82
2021/11/04 06:39:58;;;;;;;22.48;14.68;;;;;;;;;;5016098;28;20026;-82
2021/11/04 06:42:24;;;;;;;19.55;14.55;;;;;;;;;;5010975;28;20025;-89
2021/11/04 06:44:49;;;;;;;20.60;14.15;;;;;;;;;;5017318;28;20472;-88
2021/11/04 06:47:28;;;;;;;19.10;13.70;;;;;;;;;;5018693;28;20716;-81
2021/11/04 06:49:56;;;;;;;18.42;13.52;;;;;;;;;;5025162;28;20365;-81
2021/11/04 06:52:26;;;;;;;16.88;13.02;;;;;;;;;;5013890;28;20029;-88
2021/11/04 06:54:55;;;;;;;18.67;13.38;;;;;;;;;;5005768;28;20148;-87
2021/11/04 06:57:24;;;;;;;16.35;12.65;;;;;;;;;;5011308;28;20052;-82
2021/11/04 06:59:50;;;;;;;18.17;13.07;;;;;;;;;;5011917;28;20128;-82
2021/11/04 07:02:33;;;;;;;18.15;13.35;;;;;;;;;;5001147;28;20041;-88
2021/11/04 07:04:59;;;;;;;25.95;13.35;;;;;;;;;;5007983;28;20022;-88
2021/11/04 07:07:25;;;;;;;15.55;12.02;;;;;;;;;;5027856;28;20544;-86
2021/11/04 07:09:51;;;;;;;15.85;11.63;;;;;;;;;;5019434;28;20160;-81
2021/11/04 07:12:17;;;;;;;16.38;11.52;;;;;;;;;;5004053;28;20030;-82
2021/11/04 07:14:43;;;;;;;17.30;12.18;;;;;;;;;;5004784;28;20025;-81
2021/11/04 07:17:13;;;;;;;16.95;11.70;;;;;;;;;;5022600;28;20036;-86
2021/11/04 07:19:40;;;;;;;16.02;12.00;;;;;;;;;;5007501;28;20092;-86
2021/11/04 07:22:24;;;;;;;17.23;12.75;;;;;;;;;;5018563;28;20018;-82
2021/11/04 07:25:10;;;;;;;15.85;12.00;;;;;;;;;;5018726;28;20030;-87
2021/11/04 07:27:51;;;;;;;16.15;12.18;;;;;;;;;;5008304;28;20033;-81
2021/11/04 07:30:19;;;;;;;16.92;11.73;;;;;;;;;;5009167;28;20112;-86
2021/11/04 07:32:51;;;;;;;16.17;11.43;;;;;;;;;;5008517;28;20489;-83
2021/11/04 07:35:19;;;;;;;15.05;10.98;;;;;;;;;;5006998;28;20037;-86
2021/11/04 07:37:45;;;;;;;14.32;11.55;;;;;;;;;;5013180;28;20076;-88
2021/11/04 07:40:12;;;;;;;15.57;11.82;;;;;;;;;;5007803;28;20546;-83
2021/11/04 07:42:37;;;;;;;15.45;11.35;;;;;;;;;;5009377;28;20032;-87
2021/11/04 07:45:04;;;;;;;16.42;11.18;;;;;;;;;;5010794;28;20109;-81
2021/11/04 07:47:29;;;;;;;15.48;11.13;;;;;;;;;;5010596;28;20068;-81
2021/11/04 07:49:55;;;;;;;15.68;11.85;;;;;;;;;;5014317;28;20053;-81
2021/11/04 07:52:20;;;;;;;15.30;11.25;;;;;;;;;;5012469;28;20025;-87
2021/11/04 07:54:46;;;;;;;14.20;10.35;;;;;;;;;;5010849;28;20035;-82
2021/11/04 07:57:11;;;;;;;14.85;10.93;;;;;;;;;;5010125;28;20032;-89
2021/11/04 07:59:37;;;;;;;15.95;11.35;;;;;;;;;;5017395;28;20030;-81
2021/11/04 08:02:03;;;;;;;16.60;11.13;;;;;;;;;;5009207;28;20030;-82
2021/11/04 08:04:29;;;;;;;15.80;10.77;;;;;;;;;;5011095;28;20018;-81
2021/11/04 08:06:56;;;;;;;15.38;10.88;;;;;;;;;;5008754;28;20038;-80
2021/11/04 08:09:21;;;;;;;15.40;11.15;;;;;;;;;;5012880;28;20053;-82
2021/11/04 08:11:47;;;;;;;15.38;10.27;;;;;;;;;;5007693;28;20049;-87
2021/11/04 08:14:12;;;;;;;15.80;11.95;;;;;;;;;;5010946;28;20450;-86
2021/11/04 08:16:38;;;;;;;17.48;11.88;;;;;;;;;;5019296;28;20078;-82
2021/11/04 08:19:03;;;;;;;15.60;11.23;;;;;;;;;;5016227;28;20029;-82
2021/11/04 08:21:28;;;;;;;16.02;11.77;;;;;;;;;;5011809;28;20501;-81
2021/11/04 08:23:54;;;;;;;17.08;12.10;;;;;;;;;;5014457;28;20108;-82
2021/11/04 08:26:19;;;;;;;17.80;11.63;;;;;;;;;;5017204;28;20109;-81
2021/11/04 08:28:45;;;;;;;17.17;11.60;;;;;;;;;;5021782;28;20022;-82
2021/11/04 08:31:11;;;;;;;18.08;11.90;;;;;;;;;;5014727;28;20026;-87
2021/11/04 08:33:36;;;;;;;16.70;11.27;;;;;;;;;;5010511;28;20025;-89
2021/11/04 08:36:02;;;;;;;18.38;11.85;;;;;;;;;;5023322;28;20022;-81
2021/11/04 08:38:27;;;;;;;18.70;11.77;;;;;;;;;;5022141;28;20025;-82
2021/11/04 08:40:53;;;;;;;16.80;12.23;;;;;;;;;;5027619;28;20365;-82
2021/11/04 08:43:18;;;;;;;18.02;11.98;;;;;;;;;;5024463;28;20056;-88
2021/11/04 08:45:43;;;;;;;17.77;11.85;;;;;;;;;;5016572;28;20060;-81
2021/11/04 08:48:10;;;;;;;18.50;11.90;;;;;;;;;;5025600;28;20525;-88
2021/11/04 08:50:36;;;;;;;15.52;11.00;;;;;;;;;;5019365;28;20022;-83
2021/11/04 08:53:01;;;;;;;16.02;10.75;;;;;;;;;;5022196;28;20030;-81
2021/11/04 08:55:27;;;;;;;17.13;11.55;;;;;;;;;;5017333;28;20169;-81
2021/11/04 08:57:53;;;;;;;17.65;11.57;;;;;;;;;;5015819;28;20066;-89
2021/11/04 09:00:19;;;;;;;15.00;11.02;;;;;;;;;;5021334;28;20040;-87
2021/11/04 09:02:45;;;;;;;16.35;11.60;;;;;;;;;;5020549;28;20026;-88
2021/11/04 09:05:10;;;;;;;16.65;11.80;;;;;;;;;;5023790;28;20473;-87
2021/11/04 09:07:40;;;;;;;15.70;11.15;;;;;;;;;;5018890;28;20030;-86
2021/11/04 09:10:08;;;;;;;14.98;10.98;;;;;;;;;;5025410;28;20476;-88
2021/11/04 09:12:35;;;;;;;16.25;12.35;;;;;;;;;;5026244;28;20410;-82
2021/11/04 09:15:03;;;;;;;15.30;11.27;;;;;;;;;;5018311;28;20032;-88
2021/11/04 09:17:28;;;;;;;15.23;11.02;;;;;;;;;;5016452;28;20482;-85
2021/11/04 09:19:53;;;;;;;16.20;11.57;;;;;;;;;;5019289;28;20076;-81
2021/11/04 09:22:20;;;;;;;17.92;12.10;;;;;;;;;;5010714;28;20022;-87
2021/11/04 09:24:46;;;;;;;17.08;11.88;;;;;;;;;;5019558;28;20096;-82
2021/11/04 09:27:14;;;;;;;15.95;12.05;;;;;;;;;;5019835;28;20046;-81
2021/11/04 09:29:41;;;;;;;17.42;11.65;;;;;;;;;;5014292;28;20057;-87
2021/11/04 09:32:08;;;;;;;15.65;11.18;;;;;;;;;;5019198;28;20028;-81
2021/11/04 09:34:34;;;;;;;18.05;11.90;;;;;;;;;;5018529;28;20025;-83
2021/11/04 09:36:59;;;;;;;17.63;13.15;;;;;;;;;;5020160;28;20052;-82
2021/11/04 09:39:25;;;;;;;18.38;12.73;;;;;;;;;;5025170;28;20026;-81
2021/11/04 09:41:51;;;;;;;17.25;12.00;;;;;;;;;;5011948;28;20034;-83
2021/11/04 09:44:20;;;;;;;17.65;12.98;;;;;;;;;;5018395;28;20033;-82
2021/11/04 09:46:45;;;;;;;16.90;13.10;;;;;;;;;;5018962;28;20493;-83
2021/11/04 09:49:17;;;;;;;18.30;11.70;;;;;;;;;;5014451;28;20057;-89
2021/11/04 09:51:43;;;;;;;16.30;12.20;;;;;;;;;;5018024;28;20033;-90
2021/11/04 09:54:08;;;;;;;16.40;12.80;;;;;;;;;;5019123;28;20022;-87
2021/11/04 09:56:35;;;;;;;19.83;12.20;;;;;;;;;;5014847;28;20111;-88
2021/11/04 09:59:01;;;;;;;17.55;12.30;;;;;;;;;;5015847;28;20370;-87
2021/11/04 10:01:28;;;;;;;17.90;12.13;;;;;;;;;;5018751;28;20108;-82
2021/11/04 10:03:55;;;;;;;18.58;12.00;;;;;;;;;;5011877;28;20041;-82
2021/11/04 10:06:26;;;;;;;16.77;12.40;;;;;;;;;;5028830;28;20028;-89
2021/11/04 10:08:54;;;;;;;15.90;11.63;;;;;;;;;;5021406;28;20053;-81
2021/11/04 10:11:21;;;;;;;16.83;12.18;;;;;;;;;;5022277;28;20044;-82
2021/11/04 10:13:48;;;;;;;18.42;12.73;;;;;;;;;;5014386;28;20489;-82
2021/11/04 10:16:15;;;;;;;22.38;11.90;;;;;;;;;;5017760;28;20066;-90
2021/11/04 10:18:51;;;;;;;15.68;11.50;;;;;;;;;;5012688;28;20501;-87
2021/11/04 10:21:30;;;;;;;14.75;11.27;;;;;;;;;;5032127;28;20361;-87
2021/11/04 10:23:56;;;;;;;14.43;11.13;;;;;;;;;;5016443;28;20038;-81
2021/11/04 10:26:28;;;;;;;14.32;10.98;;;;;;;;;;5021000;28;20834;-83
2021/11/04 10:29:07;;;;;;;16.83;11.85;;;;;;;;;;5022588;28;20112;-81
2021/11/04 10:31:41;;;;;;;16.38;12.32;;;;;;;;;;5015106;28;20536;-87
2021/11/04 10:34:16;;;;;;;15.80;11.75;;;;;;;;;;5009972;28;20029;-86
2021/11/04 10:36:45;;;;;;;14.13;11.13;;;;;;;;;;5005899;28;20030;-81
2021/11/04 10:39:12;;;;;;;15.82;11.68;;;;;;;;;;5011133;28;20080;-80
2021/11/04 10:41:40;;;;;;;16.73;11.45;;;;;;;;;;5011636;28;20034;-86
2021/11/04 10:44:09;;;;;;;16.45;11.13;;;;;;;;;;5013393;28;20033;-89
2021/11/04 10:46:44;;;;;;;17.20;11.75;;;;;;;;;;5007048;28;20045;-81
2021/11/04 10:49:10;;;;;;;14.98;10.40;;;;;;;;;;5012432;28;20030;-87
2021/11/04 10:51:36;;;;;;;16.52;11.18;;;;;;;;;;5012751;28;20024;-82
2021/11/04 10:54:07;;;;;;;13.88;9.40;;;;;;;;;;5012010;28;20025;-82
2021/11/04 10:56:53;;;;;;;12.38;9.52;;;;;;;;;;5025700;28;20025;-91
2021/11/04 10:59:21;;;;;;;11.27;8.65;;;;;;;;;;5008780;28;20029;-88
2021/11/04 11:01:48;;;;;;;13.63;8.80;;;;;;;;;;5012236;28;20022;-87
2021/11/04 11:04:16;;;;;;;12.68;9.05;;;;;;;;;;5016864;28;20037;-87
2021/11/04 11:06:47;;;;;;;13.10;8.98;;;;;;;;;;5017882;28;20037;-82
2021/11/04 11:09:15;;;;;;;14.32;9.98;;;;;;;;;;5011996;28;20034;-88
2021/11/04 11:11:49;;;;;;;12.68;9.57;;;;;;;;;;5016586;28;20097;-82
2021/11/04 11:14:19;;;;;;;12.63;9.65;;;;;;;;;;5013768;28;20502;-83
2021/11/04 11:16:53;;;;;;;14.55;9.60;;;;;;;;;;5013308;28;20033;-82
2021/11/04 11:19:39;;;;;;;13.10;9.77;;;;;;;;;;5006380;28;20464;-86
2021/11/04 11:22:06;;;;;;;13.43;10.18;;;;;;;;;;5029298;28;20116;-87
2021/11/04 11:24:36;;;;;;;15.55;10.77;;;;;;;;;;5027042;28;20373;-85
2021/11/04 11:27:06;;;;;;;13.70;10.48;;;;;;;;;;5002284;28;20076;-82
2021/11/04 11:29:36;;;;;;;14.32;11.05;;;;;;;;;;5013116;28;20026;-81
2021/11/04 11:32:04;;;;;;;15.02;10.50;;;;;;;;;;5010495;28;20026;-86
2021/11/04 11:34:33;;;;;;;16.00;10.27;;;;;;;;;;5025556;28;20112;-88
2021/11/04 11:37:16;;;;;;;14.38;11.32;;;;;;;;;;5008763;28;20018;-81
2021/11/04 11:39:47;;;;;;;15.93;11.18;;;;;;;;;;5016313;28;20033;-81
2021/11/04 11:42:19;;;;;;;16.42;11.07;;;;;;;;;;5016361;28;20030;-88
2021/11/04 11:44:54;;;;;;;16.05;11.55;;;;;;;;;;5009693;28;20034;-82
2021/11/04 11:47:34;;;;;;;16.08;11.30;;;;;;;;;;5007535;28;20032;-90
2021/11/04 11:50:21;;;;;;;16.13;11.27;;;;;;;;;;5016959;28;20034;-89
2021/11/04 11:52:52;;;;;;;14.65;11.45;;;;;;;;;;4996550;28;20560;-89
2021/11/04 11:55:42;;;;;;;20.60;12.82;;;;;;;;;;5019723;28;20032;-88
2021/11/04 11:58:16;;;;;;;17.65;12.52;;;;;;;;;;5011146;28;20112;-80
2021/11/04 12:01:05;;;;;;;17.42;13.32;;;;;;;;;;5010662;28;20485;-89
2021/11/04 12:03:35;;;;;;;19.98;13.35;;;;;;;;;;5003449;28;20070;-82
2021/11/04 12:06:04;;;;;;;19.05;13.77;;;;;;;;;;5007570;28;20038;-82
2021/11/04 12:08:29;;;;;;;18.27;14.20;;;;;;;;;;5006338;28;20033;-87
2021/11/04 12:10:59;;;;;;;18.35;13.43;;;;;;;;;;5007950;28;20036;-88
2021/11/04 12:13:43;;;;;;;17.13;12.98;;;;;;;;;;5003934;28;20053;-83
2021/11/04 12:16:12;;;;;;;16.67;12.88;;;;;;;;;;5011703;28;20021;-89
2021/11/04 12:18:53;;;;;;;17.85;13.63;;;;;;;;;;5010610;28;20080;-81
2021/11/04 12:21:34;;;;;;;15.82;12.52;;;;;;;;;;5014928;28;20098;-87
2021/11/04 12:24:03;;;;;;;15.60;13.02;;;;;;;;;;5007996;28;20034;-89
2021/11/04 12:26:37;;;;;;;17.08;12.38;;;;;;;;;;5011021;28;20030;-82
2021/11/04 12:29:05;;;;;;;16.90;11.93;;;;;;;;;;5012875;28;20033;-86
2021/11/04 12:31:31;;;;;;;14.23;11.18;;;;;;;;;;5009675;28;20026;-89
2021/11/04 12:33:58;;;;;;;16.52;11.68;;;;;;;;;;5012413;28;20033;-82
2021/11/04 12:36:42;;;;;;;16.50;12.35;;;;;;;;;;5010252;28;20444;-83
2021/11/04 12:39:20;;;;;;;14.90;11.27;;;;;;;;;;5011055;28;20030;-89
2021/11/04 12:41:51;;;;;;;15.50;11.57;;;;;;;;;;5018157;28;20446;-89
2021/11/04 12:44:25;;;;;;;16.48;11.68;;;;;;;;;;5012291;28;20112;-88
2021/11/04 12:46:51;;;;;;;19.95;12.27;;;;;;;;;;5007856;28;20037;-89
2021/11/04 12:49:32;;;;;;;15.55;11.90;;;;;;;;;;5007501;28;20065;-88
2021/11/04 12:52:04;;;;;;;15.73;11.45;;;;;;;;;;5017383;28;22266;-87
2021/11/04 12:54:35;;;;;;;16.45;11.65;;;;;;;;;;5002578;28;20030;-83
2021/11/04 12:57:03;;;;;;;14.77;11.68;;;;;;;;;;5015832;28;20033;-83
2021/11/04 12:59:45;;;;;;;14.00;11.23;;;;;;;;;;4998360;28;20030;-88
2021/11/04 13:02:25;;;;;;;16.23;11.38;;;;;;;;;;5007287;28;20030;-85
2021/11/04 13:04:50;;;;;;;15.13;11.55;;;;;;;;;;5009759;28;20045;-90
2021/11/04 13:07:23;;;;;;;18.00;13.75;;;;;;;;;;5018467;28;20030;-81
2021/11/04 13:09:54;;;;;;;19.80;13.18;;;;;;;;;;5024811;28;20026;-88
2021/11/04 13:12:22;;;;;;;17.50;13.15;;;;;;;;;;5014815;28;20034;-89
2021/11/04 13:15:01;;;;;;;19.35;11.82;;;;;;;;;;5014073;28;20054;-82
2021/11/04 13:17:39;;;;;;;18.40;13.52;;;;;;;;;;5019203;28;20611;-84
2021/11/04 13:20:08;;;;;;;19.50;13.13;;;;;;;;;;5029522;28;20055;-88
2021/11/04 13:22:37;;;;;;;19.75;14.00;;;;;;;;;;5008296;28;20026;-85
2021/11/04 13:25:06;;;;;;;16.15;12.20;;;;;;;;;;5016737;28;20021;-89
2021/11/04 13:27:32;;;;;;;13.68;10.48;;;;;;;;;;5011966;28;20025;-88
2021/11/04 13:29:59;;;;;;;13.70;10.63;;;;;;;;;;5016533;28;20079;-91
2021/11/04 13:32:29;;;;;;;15.75;10.52;;;;;;;;;;5023406;28;20052;-88
2021/11/04 13:34:55;;;;;;;15.65;9.57;;;;;;;;;;5014807;28;20025;-82
2021/11/04 13:37:26;;;;;;;12.95;9.98;;;;;;;;;;5013961;28;20133;-81
2021/11/04 13:39:56;;;;;;;14.30;10.75;;;;;;;;;;5018033;28;20065;-81
2021/11/04 13:42:31;;;;;;;13.00;9.32;;;;;;;;;;5009463;28;20046;-88
2021/11/04 13:45:21;;;;;;;14.48;10.25;;;;;;;;;;5013743;28;20030;-88
2021/11/04 13:47:47;;;;;;;14.82;10.60;;;;;;;;;;5001967;28;20030;-81
2021/11/04 13:50:16;;;;;;;14.05;10.68;;;;;;;;;;5012163;28;20026;-89
2021/11/04 13:52:43;;;;;;;15.98;11.20;;;;;;;;;;5015388;28;20084;-83
2021/11/04 13:55:25;;;;;;;14.80;10.27;;;;;;;;;;5013049;28;20473;-82
2021/11/04 13:57:52;;;;;;;12.38;9.85;;;;;;;;;;5014758;28;20076;-81
2021/11/04 14:00:22;;;;;;;13.02;10.02;;;;;;;;;;5023507;28;20025;-89
2021/11/04 14:02:57;;;;;;;14.85;10.32;;;;;;;;;;5009172;28;20029;-89
2021/11/04 14:05:24;;;;;;;15.63;10.10;;;;;;;;;;5016030;28;20026;-90
2021/11/04 14:07:50;;;;;;;15.15;10.43;;;;;;;;;;5011731;28;20076;-88
2021/11/04 14:10:17;;;;;;;17.30;9.75;;;;;;;;;;5014121;28;20040;-88
2021/11/04 14:12:45;;;;;;;15.93;10.60;;;;;;;;;;5012531;28;20076;-87
2021/11/04 14:15:17;;;;;;;16.40;11.48;;;;;;;;;;5014492;28;20084;-81
2021/11/04 14:17:53;;;;;;;15.27;11.98;;;;;;;;;;5009664;28;20053;-89
2021/11/04 14:20:22;;;;;;;14.35;10.80;;;;;;;;;;5021834;28;20036;-83
2021/11/04 14:22:48;;;;;;;16.60;11.52;;;;;;;;;;5016144;28;20380;-88
2021/11/04 14:25:14;;;;;;;17.83;11.18;;;;;;;;;;5013207;28;20026;-84